UAE441 YPAD-OMDB
Flight info
| Callsign | UAE441 |
|---|---|
| Flight time | N/A |
| Altitude | 30000 |
| Route | AREPA J58 WHA J251 WR DCT ARENI/N0503F320 DCT AYE DCT SCHEE DCT 2024S12518E 1856S12306E 1718S12030E DCT ONALA G222 METUM DCT 1238S11235E DCT SAPDA L896 ESLOG/N0502F340 L896 OBMAT M766 GODAV/N0496F360 M766 KAT P570 LADIB/N0491F380 P570 ITURA M762 VAXAS/N0472F240 M762 MIVEK P574 IMPED |
| Aircraft | B77W/H-SDE1E2E3FGHIJ2J3J4J5M1RWXY/LB1D1 |
Departure
| Time | N/A |
|---|---|
| Airport | Adelaide International Airport (YPAD) |
Arrival
| Time | 2026-04-23 02:08 |
|---|---|
| Airport | Dubai International Airport (OMDB) |
| Time | Latitude | Longitude | Altitude | Speed | Heading |
|---|---|---|---|---|---|
| 2026-04-23 00:21 | 17.74994 | 63.70434 | 35959 ft | 460 kts | 307° |
| 2026-04-23 00:22 | 17.76887 | 63.67727 | 36275 ft | 459 kts | 307° |
| 2026-04-23 00:22 | 17.78767 | 63.65038 | 36698 ft | 455 kts | 307° |
| 2026-04-23 00:22 | 17.80631 | 63.62370 | 37137 ft | 451 kts | 307° |
| 2026-04-23 00:22 | 17.82481 | 63.59722 | 37527 ft | 449 kts | 307° |
| 2026-04-23 00:23 | 17.84321 | 63.57086 | 37809 ft | 448 kts | 307° |
| 2026-04-23 00:23 | 17.88026 | 63.51779 | 37881 ft | 451 kts | 307° |
| 2026-04-23 00:24 | 17.91716 | 63.46487 | 37877 ft | 447 kts | 307° |
| 2026-04-23 00:24 | 17.95377 | 63.41232 | 37876 ft | 444 kts | 307° |
| 2026-04-23 00:25 | 17.99017 | 63.36004 | 37876 ft | 443 kts | 307° |
| 2026-04-23 00:25 | 18.02649 | 63.30784 | 37877 ft | 442 kts | 307° |
| 2026-04-23 00:26 | 18.06279 | 63.25560 | 37888 ft | 443 kts | 307° |
| 2026-04-23 00:26 | 18.09915 | 63.20325 | 37888 ft | 444 kts | 307° |
| 2026-04-23 00:27 | 18.13563 | 63.15069 | 37884 ft | 446 kts | 307° |
| 2026-04-23 00:27 | 18.17217 | 63.09800 | 37882 ft | 446 kts | 307° |
| 2026-04-23 00:28 | 18.20848 | 63.04558 | 37878 ft | 446 kts | 307° |
| 2026-04-23 00:28 | 18.24504 | 62.99278 | 37880 ft | 446 kts | 307° |
| 2026-04-23 00:29 | 18.28156 | 62.93997 | 37879 ft | 446 kts | 307° |
| 2026-04-23 00:29 | 18.31803 | 62.88721 | 37879 ft | 446 kts | 307° |
| 2026-04-23 00:30 | 18.35445 | 62.83447 | 37876 ft | 445 kts | 307° |
| 2026-04-23 00:30 | 18.39081 | 62.78177 | 37885 ft | 444 kts | 307° |
| 2026-04-23 00:31 | 18.42707 | 62.72917 | 37877 ft | 444 kts | 306° |
| 2026-04-23 00:31 | 18.46327 | 62.67662 | 37876 ft | 443 kts | 306° |
| 2026-04-23 00:32 | 18.49944 | 62.62407 | 37877 ft | 443 kts | 306° |
| 2026-04-23 00:32 | 18.53553 | 62.57158 | 37877 ft | 442 kts | 306° |
| 2026-04-23 00:33 | 18.57163 | 62.51905 | 37862 ft | 442 kts | 306° |
| 2026-04-23 00:33 | 18.60734 | 62.46682 | 37874 ft | 442 kts | 306° |
| 2026-04-23 00:34 | 18.64306 | 62.41405 | 37882 ft | 442 kts | 306° |
| 2026-04-23 00:34 | 18.67876 | 62.36122 | 37873 ft | 442 kts | 306° |
| 2026-04-23 00:35 | 18.71448 | 62.30835 | 37874 ft | 442 kts | 306° |
| 2026-04-23 00:35 | 18.75021 | 62.25545 | 37874 ft | 443 kts | 306° |
| 2026-04-23 00:36 | 18.78591 | 62.20257 | 37866 ft | 442 kts | 306° |
| 2026-04-23 00:36 | 18.82158 | 62.14968 | 37875 ft | 442 kts | 306° |
| 2026-04-23 00:37 | 18.85722 | 62.09679 | 37873 ft | 442 kts | 306° |
| 2026-04-23 00:37 | 18.89285 | 62.04390 | 37873 ft | 442 kts | 306° |
| 2026-04-23 00:38 | 18.92824 | 61.99129 | 37871 ft | 442 kts | 306° |
| 2026-04-23 00:38 | 18.96387 | 61.93828 | 37869 ft | 442 kts | 306° |
| 2026-04-23 00:39 | 18.99948 | 61.88525 | 37868 ft | 442 kts | 306° |
| 2026-04-23 00:39 | 19.03506 | 61.83224 | 37868 ft | 442 kts | 306° |
| 2026-04-23 00:40 | 19.07064 | 61.77917 | 37871 ft | 442 kts | 306° |
| 2026-04-23 00:40 | 19.10619 | 61.72611 | 37871 ft | 442 kts | 306° |
| 2026-04-23 00:41 | 19.14173 | 61.67301 | 37871 ft | 442 kts | 306° |
| 2026-04-23 00:41 | 19.17726 | 61.61987 | 37869 ft | 442 kts | 306° |
| 2026-04-23 00:42 | 19.21256 | 61.56705 | 37866 ft | 443 kts | 306° |
| 2026-04-23 00:42 | 19.24808 | 61.51384 | 37866 ft | 443 kts | 306° |
| 2026-04-23 00:43 | 19.28360 | 61.46060 | 37866 ft | 443 kts | 306° |
| 2026-04-23 00:43 | 19.31910 | 61.40732 | 37866 ft | 443 kts | 306° |
| 2026-04-23 00:44 | 19.35461 | 61.35400 | 37878 ft | 443 kts | 305° |
| 2026-04-23 00:44 | 19.39012 | 61.30063 | 37866 ft | 443 kts | 305° |
| 2026-04-23 00:45 | 19.42562 | 61.24722 | 37866 ft | 443 kts | 305° |
| 2026-04-23 00:45 | 19.46112 | 61.19377 | 37865 ft | 443 kts | 305° |
| 2026-04-23 00:46 | 19.49658 | 61.14032 | 37866 ft | 443 kts | 305° |
| 2026-04-23 00:46 | 19.53180 | 61.08720 | 37866 ft | 443 kts | 305° |
| 2026-04-23 00:47 | 19.56723 | 61.03371 | 37860 ft | 443 kts | 305° |
| 2026-04-23 00:47 | 19.60263 | 60.98021 | 37866 ft | 443 kts | 305° |
| 2026-04-23 00:48 | 19.63796 | 60.92678 | 37865 ft | 442 kts | 305° |
| 2026-04-23 00:48 | 19.67323 | 60.87339 | 37866 ft | 442 kts | 305° |
| 2026-04-23 00:49 | 19.70846 | 60.82002 | 37866 ft | 441 kts | 305° |
| 2026-04-23 00:49 | 19.74366 | 60.76663 | 37863 ft | 441 kts | 305° |
| 2026-04-23 00:50 | 19.77881 | 60.71328 | 37863 ft | 441 kts | 305° |
| 2026-04-23 00:50 | 19.81392 | 60.65994 | 37862 ft | 440 kts | 305° |
| 2026-04-23 00:51 | 19.84901 | 60.60660 | 37861 ft | 441 kts | 305° |
| 2026-04-23 00:51 | 19.88411 | 60.55317 | 37861 ft | 441 kts | 305° |
| 2026-04-23 00:52 | 19.91919 | 60.49973 | 37858 ft | 441 kts | 305° |
| 2026-04-23 00:52 | 19.95429 | 60.44620 | 37852 ft | 441 kts | 305° |
| 2026-04-23 00:53 | 19.98938 | 60.39266 | 37858 ft | 441 kts | 305° |
| 2026-04-23 00:53 | 20.02451 | 60.33967 | 37853 ft | 441 kts | 308° |
| 2026-04-23 00:54 | 20.06777 | 60.29339 | 37864 ft | 443 kts | 318° |
| 2026-04-23 00:54 | 20.11818 | 60.25557 | 37863 ft | 445 kts | 327° |
| 2026-04-23 00:55 | 20.17166 | 60.22213 | 37855 ft | 446 kts | 327° |
| 2026-04-23 00:55 | 20.22526 | 60.18876 | 37855 ft | 446 kts | 327° |
| 2026-04-23 00:56 | 20.27872 | 60.15507 | 37854 ft | 446 kts | 327° |
| 2026-04-23 00:56 | 20.33211 | 60.12119 | 37860 ft | 447 kts | 327° |
| 2026-04-23 00:57 | 20.38551 | 60.08722 | 37854 ft | 447 kts | 327° |
| 2026-04-23 00:57 | 20.43889 | 60.05325 | 37855 ft | 447 kts | 327° |
| 2026-04-23 00:58 | 20.49228 | 60.01926 | 37855 ft | 447 kts | 327° |
| 2026-04-23 00:58 | 20.54571 | 59.98522 | 37855 ft | 447 kts | 327° |
| 2026-04-23 00:59 | 20.59912 | 59.95116 | 37859 ft | 447 kts | 327° |
| 2026-04-23 00:59 | 20.65253 | 59.91707 | 37854 ft | 447 kts | 327° |
| 2026-04-23 01:00 | 20.70558 | 59.88318 | 37852 ft | 447 kts | 327° |
| 2026-04-23 01:00 | 20.75896 | 59.84905 | 37858 ft | 447 kts | 327° |
| 2026-04-23 01:01 | 20.81228 | 59.81493 | 37859 ft | 447 kts | 327° |
| 2026-04-23 01:01 | 20.86562 | 59.78078 | 37861 ft | 447 kts | 326° |
| 2026-04-23 01:02 | 20.91894 | 59.74660 | 37858 ft | 447 kts | 326° |
| 2026-04-23 01:02 | 20.97223 | 59.71241 | 37855 ft | 447 kts | 326° |
| 2026-04-23 01:03 | 21.02552 | 59.67818 | 37854 ft | 447 kts | 326° |
| 2026-04-23 01:03 | 21.07875 | 59.64387 | 37872 ft | 446 kts | 326° |
| 2026-04-23 01:04 | 21.13197 | 59.60952 | 37856 ft | 447 kts | 326° |
| 2026-04-23 01:04 | 21.21171 | 59.55801 | 37857 ft | 446 kts | 326° |
| 2026-04-23 01:05 | 21.25583 | 59.52949 | 37853 ft | 445 kts | 326° |
| 2026-04-23 01:05 | 21.30892 | 59.49517 | 37855 ft | 445 kts | 326° |
| 2026-04-23 01:06 | 21.37055 | 59.45532 | 37859 ft | 445 kts | 326° |
| 2026-04-23 01:06 | 21.41491 | 59.42660 | 37853 ft | 445 kts | 326° |
| 2026-04-23 01:07 | 21.46787 | 59.39228 | 37854 ft | 444 kts | 326° |
| 2026-04-23 01:07 | 21.52079 | 59.35795 | 37858 ft | 444 kts | 326° |
| 2026-04-23 01:08 | 21.57372 | 59.32359 | 37860 ft | 445 kts | 326° |
| 2026-04-23 01:08 | 21.62662 | 59.28923 | 37860 ft | 444 kts | 326° |
| 2026-04-23 01:09 | 21.67956 | 59.25490 | 37865 ft | 444 kts | 326° |
| 2026-04-23 01:09 | 21.73241 | 59.22060 | 37866 ft | 443 kts | 326° |
| 2026-04-23 01:10 | 21.78521 | 59.18629 | 37865 ft | 443 kts | 326° |
| 2026-04-23 01:10 | 21.83759 | 59.15222 | 37878 ft | 443 kts | 326° |
| 2026-04-23 01:11 | 21.89032 | 59.11788 | 37873 ft | 443 kts | 326° |
| 2026-04-23 01:11 | 21.94311 | 59.08348 | 37872 ft | 443 kts | 326° |
| 2026-04-23 01:12 | 21.99592 | 59.04903 | 37872 ft | 444 kts | 326° |
| 2026-04-23 01:12 | 22.04871 | 59.01458 | 37880 ft | 444 kts | 326° |
| 2026-04-23 01:13 | 22.10146 | 58.98011 | 37880 ft | 443 kts | 326° |
| 2026-04-23 01:13 | 22.15414 | 58.94565 | 37877 ft | 443 kts | 326° |
| 2026-04-23 01:14 | 22.20687 | 58.91114 | 37882 ft | 443 kts | 326° |
| 2026-04-23 01:14 | 22.25955 | 58.87662 | 37881 ft | 443 kts | 326° |
| 2026-04-23 01:15 | 22.31217 | 58.84209 | 37884 ft | 443 kts | 326° |
| 2026-04-23 01:15 | 22.36484 | 58.80764 | 37889 ft | 442 kts | 326° |
| 2026-04-23 01:16 | 22.41743 | 58.77310 | 37887 ft | 442 kts | 326° |
| 2026-04-23 01:16 | 22.46996 | 58.73849 | 37889 ft | 442 kts | 326° |
| 2026-04-23 01:17 | 22.52212 | 58.70409 | 37886 ft | 442 kts | 326° |
| 2026-04-23 01:17 | 22.57458 | 58.66947 | 37905 ft | 442 kts | 326° |
| 2026-04-23 01:18 | 22.62708 | 58.63477 | 37893 ft | 442 kts | 326° |
| 2026-04-23 01:18 | 22.67964 | 58.60007 | 37885 ft | 443 kts | 326° |
| 2026-04-23 01:19 | 22.73227 | 58.56537 | 37877 ft | 443 kts | 326° |
| 2026-04-23 01:19 | 22.78494 | 58.53060 | 37881 ft | 444 kts | 326° |
| 2026-04-23 01:20 | 22.83763 | 58.49574 | 37891 ft | 444 kts | 326° |
| 2026-04-23 01:20 | 22.89035 | 58.46082 | 37891 ft | 444 kts | 326° |
| 2026-04-23 01:21 | 22.94266 | 58.42609 | 37880 ft | 444 kts | 326° |
| 2026-04-23 01:21 | 22.99538 | 58.39112 | 37892 ft | 444 kts | 326° |
| 2026-04-23 01:22 | 23.04799 | 58.35615 | 37878 ft | 443 kts | 326° |
| 2026-04-23 01:22 | 23.10058 | 58.32113 | 37885 ft | 443 kts | 326° |
| 2026-04-23 01:23 | 23.15312 | 58.28606 | 37864 ft | 443 kts | 326° |
| 2026-04-23 01:23 | 23.20568 | 58.25093 | 37852 ft | 443 kts | 326° |
| 2026-04-23 01:24 | 23.25820 | 58.21578 | 37860 ft | 443 kts | 326° |
| 2026-04-23 01:24 | 23.31074 | 58.18057 | 37826 ft | 443 kts | 326° |
| 2026-04-23 01:25 | 23.36292 | 58.14485 | 37812 ft | 442 kts | 321° |
| 2026-04-23 01:25 | 23.40849 | 58.10065 | 37820 ft | 438 kts | 312° |
| 2026-04-23 01:26 | 23.44657 | 58.04927 | 37819 ft | 435 kts | 305° |
| 2026-04-23 01:26 | 23.48133 | 57.99533 | 37816 ft | 435 kts | 304° |
| 2026-04-23 01:27 | 23.51604 | 57.94166 | 37830 ft | 437 kts | 305° |
| 2026-04-23 01:27 | 23.55123 | 57.88761 | 37830 ft | 438 kts | 305° |
| 2026-04-23 01:28 | 23.58654 | 57.83346 | 37809 ft | 438 kts | 305° |
| 2026-04-23 01:28 | 23.62318 | 57.78036 | 37822 ft | 438 kts | 307° |
| 2026-04-23 01:29 | 23.66116 | 57.72831 | 37809 ft | 438 kts | 307° |
| 2026-04-23 01:29 | 23.69878 | 57.67608 | 37811 ft | 438 kts | 307° |
| 2026-04-23 01:30 | 23.73612 | 57.62368 | 37812 ft | 437 kts | 307° |
| 2026-04-23 01:30 | 23.77343 | 57.57132 | 37807 ft | 436 kts | 307° |
| 2026-04-23 01:31 | 23.81066 | 57.51919 | 37801 ft | 435 kts | 307° |
| 2026-04-23 01:31 | 23.84783 | 57.46712 | 37802 ft | 434 kts | 307° |
| 2026-04-23 01:32 | 23.88487 | 57.41509 | 37799 ft | 434 kts | 307° |
| 2026-04-23 01:32 | 23.92184 | 57.36307 | 37826 ft | 433 kts | 307° |
| 2026-04-23 01:33 | 23.95875 | 57.31109 | 37811 ft | 432 kts | 307° |
| 2026-04-23 01:33 | 23.99555 | 57.25920 | 37803 ft | 431 kts | 307° |
| 2026-04-23 01:34 | 24.03225 | 57.20739 | 37799 ft | 430 kts | 307° |
| 2026-04-23 01:34 | 24.06887 | 57.15565 | 37799 ft | 430 kts | 306° |
| 2026-04-23 01:35 | 24.10543 | 57.10393 | 37801 ft | 430 kts | 306° |
| 2026-04-23 01:35 | 24.14177 | 57.05246 | 37798 ft | 421 kts | 306° |
| 2026-04-23 01:36 | 24.15953 | 57.02728 | 37414 ft | 417 kts | 306° |
| 2026-04-23 01:36 | 24.17717 | 57.00224 | 36845 ft | 414 kts | 306° |
| 2026-04-23 01:36 | 24.19473 | 56.97731 | 36161 ft | 414 kts | 306° |
| 2026-04-23 01:36 | 24.21214 | 56.95261 | 35428 ft | 416 kts | 307° |
| 2026-04-23 01:37 | 24.22985 | 56.92745 | 34613 ft | 419 kts | 307° |
| 2026-04-23 01:37 | 24.24774 | 56.90199 | 33737 ft | 424 kts | 307° |
| 2026-04-23 01:37 | 24.26582 | 56.87621 | 32759 ft | 430 kts | 307° |
| 2026-04-23 01:37 | 24.28416 | 56.85003 | 31790 ft | 435 kts | 307° |
| 2026-04-23 01:38 | 24.30276 | 56.82346 | 30866 ft | 444 kts | 307° |
| 2026-04-23 01:38 | 24.32172 | 56.79635 | 30140 ft | 454 kts | 306° |
| 2026-04-23 01:38 | 24.34124 | 56.76842 | 29304 ft | 466 kts | 306° |
| 2026-04-23 01:38 | 24.36097 | 56.74018 | 28465 ft | 466 kts | 306° |
| 2026-04-23 01:39 | 24.38059 | 56.71208 | 27698 ft | 462 kts | 306° |
| 2026-04-23 01:39 | 24.40004 | 56.68422 | 26950 ft | 458 kts | 306° |
| 2026-04-23 01:39 | 24.41939 | 56.65651 | 26240 ft | 455 kts | 306° |
| 2026-04-23 01:39 | 24.43888 | 56.62929 | 25523 ft | 453 kts | 308° |
| 2026-04-23 01:40 | 24.46005 | 56.60387 | 24806 ft | 451 kts | 311° |
| 2026-04-23 01:40 | 24.48171 | 56.57894 | 24100 ft | 450 kts | 311° |
| 2026-04-23 01:40 | 24.50331 | 56.55414 | 23393 ft | 449 kts | 311° |
| 2026-04-23 01:40 | 24.52479 | 56.52935 | 22587 ft | 447 kts | 311° |
| 2026-04-23 01:41 | 24.54606 | 56.50465 | 21883 ft | 444 kts | 311° |
| 2026-04-23 01:41 | 24.56713 | 56.48007 | 21202 ft | 440 kts | 311° |
| 2026-04-23 01:41 | 24.58804 | 56.45562 | 20526 ft | 437 kts | 311° |
| 2026-04-23 01:41 | 24.60874 | 56.43137 | 19869 ft | 434 kts | 311° |
| 2026-04-23 01:42 | 24.62931 | 56.40725 | 19231 ft | 431 kts | 311° |
| 2026-04-23 01:42 | 24.64978 | 56.38325 | 18559 ft | 429 kts | 312° |
| 2026-04-23 01:42 | 24.67015 | 56.35938 | 17875 ft | 428 kts | 312° |
| 2026-04-23 01:42 | 24.69018 | 56.33597 | 17220 ft | 423 kts | 313° |
| 2026-04-23 01:43 | 24.71258 | 56.31465 | 16541 ft | 421 kts | 324° |
| 2026-04-23 01:43 | 24.73785 | 56.29841 | 16006 ft | 417 kts | 333° |
| 2026-04-23 01:43 | 24.76411 | 56.28713 | 15799 ft | 406 kts | 342° |
| 2026-04-23 01:43 | 24.79184 | 56.27922 | 15725 ft | 409 kts | 345° |
| 2026-04-23 01:44 | 24.81910 | 56.27155 | 15716 ft | 408 kts | 344° |
| 2026-04-23 01:44 | 24.84620 | 56.26347 | 15586 ft | 397 kts | 341° |
| 2026-04-23 01:44 | 24.87070 | 56.25009 | 15159 ft | 390 kts | 321° |
| 2026-04-23 01:44 | 24.88973 | 56.22991 | 15103 ft | 371 kts | 307° |
| 2026-04-23 01:45 | 24.90330 | 56.20670 | 15012 ft | 354 kts | 297° |
| 2026-04-23 01:45 | 24.91485 | 56.18335 | 14935 ft | 341 kts | 297° |
| 2026-04-23 01:45 | 24.92600 | 56.16090 | 14845 ft | 328 kts | 297° |
| 2026-04-23 01:45 | 24.93685 | 56.13928 | 14771 ft | 317 kts | 298° |
| 2026-04-23 01:46 | 24.94739 | 56.11848 | 14709 ft | 305 kts | 298° |
| 2026-04-23 01:46 | 24.95764 | 56.09838 | 14607 ft | 295 kts | 298° |
| 2026-04-23 01:46 | 24.96756 | 56.07895 | 14448 ft | 287 kts | 298° |
| 2026-04-23 01:46 | 24.97802 | 56.06037 | 14198 ft | 285 kts | 307° |
| 2026-04-23 01:47 | 24.99111 | 56.04403 | 13864 ft | 286 kts | 312° |
| 2026-04-23 01:47 | 25.00495 | 56.02825 | 13523 ft | 286 kts | 312° |
| 2026-04-23 01:47 | 25.01858 | 56.01245 | 13179 ft | 284 kts | 311° |
| 2026-04-23 01:47 | 25.03201 | 55.99650 | 12857 ft | 282 kts | 310° |
| 2026-04-23 01:48 | 25.04528 | 55.98053 | 12547 ft | 281 kts | 310° |
| 2026-04-23 01:48 | 25.05836 | 55.96472 | 12230 ft | 279 kts | 310° |
| 2026-04-23 01:48 | 25.07138 | 55.94883 | 11913 ft | 278 kts | 310° |
| 2026-04-23 01:48 | 25.08426 | 55.93304 | 11612 ft | 276 kts | 309° |
| 2026-04-23 01:49 | 25.09706 | 55.91731 | 11301 ft | 275 kts | 309° |
| 2026-04-23 01:49 | 25.10980 | 55.90165 | 10995 ft | 274 kts | 309° |
| 2026-04-23 01:49 | 25.12253 | 55.88601 | 10692 ft | 272 kts | 309° |
| 2026-04-23 01:49 | 25.13516 | 55.87051 | 10384 ft | 272 kts | 309° |
| 2026-04-23 01:50 | 25.14781 | 55.85499 | 10053 ft | 272 kts | 309° |
| 2026-04-23 01:50 | 25.16001 | 55.83929 | 9796 ft | 266 kts | 302° |
| 2026-04-23 01:50 | 25.16989 | 55.82213 | 9533 ft | 264 kts | 297° |
| 2026-04-23 01:50 | 25.17928 | 55.80458 | 9247 ft | 266 kts | 298° |
| 2026-04-23 01:51 | 25.18880 | 55.78704 | 8966 ft | 267 kts | 298° |
| 2026-04-23 01:51 | 25.19839 | 55.76945 | 8685 ft | 266 kts | 298° |
| 2026-04-23 01:51 | 25.20795 | 55.75211 | 8387 ft | 264 kts | 299° |
| 2026-04-23 01:51 | 25.21751 | 55.73488 | 8126 ft | 261 kts | 299° |
| 2026-04-23 01:52 | 25.22696 | 55.71789 | 7868 ft | 259 kts | 299° |
| 2026-04-23 01:52 | 25.23631 | 55.70110 | 7613 ft | 256 kts | 299° |
| 2026-04-23 01:52 | 25.24562 | 55.68446 | 7359 ft | 253 kts | 299° |
| 2026-04-23 01:52 | 25.25482 | 55.66803 | 7108 ft | 250 kts | 300° |
| 2026-04-23 01:53 | 25.26394 | 55.65169 | 6883 ft | 251 kts | 300° |
| 2026-04-23 01:53 | 25.27313 | 55.63516 | 6647 ft | 254 kts | 300° |
| 2026-04-23 01:53 | 25.28241 | 55.61849 | 6395 ft | 257 kts | 300° |
| 2026-04-23 01:53 | 25.29020 | 55.60109 | 6114 ft | 250 kts | 281° |
| 2026-04-23 01:54 | 25.28981 | 55.58225 | 5906 ft | 244 kts | 252° |
| 2026-04-23 01:54 | 25.28209 | 55.56586 | 5816 ft | 242 kts | 233° |
| 2026-04-23 01:54 | 25.26955 | 55.55321 | 5732 ft | 248 kts | 212° |
| 2026-04-23 01:54 | 25.25297 | 55.54788 | 5631 ft | 256 kts | 180° |
| 2026-04-23 01:55 | 25.24133 | 55.55017 | 5584 ft | 259 kts | 161° |
| 2026-04-23 01:55 | 25.22640 | 55.56123 | 5483 ft | 262 kts | 134° |
| 2026-04-23 01:55 | 25.21297 | 55.58362 | 5377 ft | 262 kts | 123° |
| 2026-04-23 01:55 | 25.20347 | 55.60084 | 5284 ft | 263 kts | 123° |
| 2026-04-23 01:56 | 25.19395 | 55.61812 | 5190 ft | 264 kts | 123° |
| 2026-04-23 01:56 | 25.18454 | 55.63522 | 5105 ft | 264 kts | 123° |
| 2026-04-23 01:56 | 25.17808 | 55.64689 | 5041 ft | 264 kts | 123° |
| 2026-04-23 01:56 | 25.16846 | 55.66420 | 4954 ft | 264 kts | 123° |
| 2026-04-23 01:57 | 25.15888 | 55.68143 | 4855 ft | 263 kts | 123° |
| 2026-04-23 01:57 | 25.14933 | 55.69859 | 4761 ft | 261 kts | 123° |
| 2026-04-23 01:57 | 25.13982 | 55.71563 | 4671 ft | 260 kts | 123° |
| 2026-04-23 01:57 | 25.13050 | 55.73231 | 4587 ft | 258 kts | 123° |
| 2026-04-23 01:58 | 25.12113 | 55.74911 | 4485 ft | 256 kts | 123° |
| 2026-04-23 01:58 | 25.11182 | 55.76578 | 4403 ft | 254 kts | 124° |
| 2026-04-23 01:58 | 25.10258 | 55.78229 | 4317 ft | 252 kts | 125° |
| 2026-04-23 01:58 | 25.09342 | 55.79869 | 4231 ft | 250 kts | 126° |
| 2026-04-23 01:59 | 25.08430 | 55.81498 | 4141 ft | 248 kts | 127° |
| 2026-04-23 01:59 | 25.07524 | 55.83113 | 4063 ft | 247 kts | 127° |
| 2026-04-23 01:59 | 25.06429 | 55.84493 | 3968 ft | 237 kts | 153° |
| 2026-04-23 01:59 | 25.04885 | 55.85008 | 3911 ft | 234 kts | 182° |
| 2026-04-23 02:00 | 25.03286 | 55.84709 | 3827 ft | 234 kts | 202° |
| 2026-04-23 02:00 | 25.01920 | 55.83776 | 3735 ft | 234 kts | 226° |
| 2026-04-23 02:00 | 25.01167 | 55.82193 | 3660 ft | 238 kts | 255° |
| 2026-04-23 02:00 | 25.01115 | 55.80362 | 3589 ft | 243 kts | 274° |
| 2026-04-23 02:01 | 25.01704 | 55.78591 | 3501 ft | 251 kts | 297° |
| 2026-04-23 02:01 | 25.02695 | 55.76972 | 3412 ft | 257 kts | 300° |
| 2026-04-23 02:01 | 25.03688 | 55.75331 | 3322 ft | 257 kts | 298° |
| 2026-04-23 02:01 | 25.04650 | 55.73662 | 3235 ft | 258 kts | 297° |
| 2026-04-23 02:02 | 25.05597 | 55.71979 | 3136 ft | 258 kts | 297° |
| 2026-04-23 02:02 | 25.06534 | 55.70297 | 3044 ft | 257 kts | 296° |
| 2026-04-23 02:02 | 25.07465 | 55.68622 | 2971 ft | 255 kts | 296° |
| 2026-04-23 02:02 | 25.08392 | 55.66950 | 2924 ft | 255 kts | 297° |
| 2026-04-23 02:03 | 25.09314 | 55.65288 | 2888 ft | 253 kts | 298° |
| 2026-04-23 02:03 | 25.10231 | 55.63634 | 2902 ft | 252 kts | 297° |
| 2026-04-23 02:03 | 25.11142 | 55.61989 | 2920 ft | 249 kts | 297° |
| 2026-04-23 02:03 | 25.12044 | 55.60362 | 2908 ft | 251 kts | 297° |
| 2026-04-23 02:04 | 25.12958 | 55.58711 | 2889 ft | 250 kts | 297° |
| 2026-04-23 02:04 | 25.13831 | 55.57139 | 2867 ft | 236 kts | 297° |
| 2026-04-23 02:04 | 25.14649 | 55.55667 | 2851 ft | 213 kts | 297° |
| 2026-04-23 02:04 | 25.15381 | 55.54348 | 2817 ft | 192 kts | 297° |
| 2026-04-23 02:05 | 25.16073 | 55.53094 | 2741 ft | 196 kts | 296° |
| 2026-04-23 02:05 | 25.16772 | 55.51822 | 2478 ft | 190 kts | 298° |
| 2026-04-23 02:05 | 25.17450 | 55.50600 | 2254 ft | 187 kts | 299° |
| 2026-04-23 02:05 | 25.18130 | 55.49373 | 2013 ft | 188 kts | 299° |
| 2026-04-23 02:06 | 25.18811 | 55.48141 | 1767 ft | 188 kts | 300° |
| 2026-04-23 02:06 | 25.19490 | 55.46915 | 1527 ft | 186 kts | 300° |
| 2026-04-23 02:06 | 25.20162 | 55.45699 | 1284 ft | 184 kts | 301° |
| 2026-04-23 02:06 | 25.20820 | 55.44509 | 1046 ft | 176 kts | 301° |
| 2026-04-23 02:07 | 25.21433 | 55.43423 | 840 ft | 158 kts | 302° |
| 2026-04-23 02:07 | 25.21980 | 55.42433 | 641 ft | 147 kts | 301° |
| 2026-04-23 02:07 | 25.22504 | 55.41477 | 499 ft | 145 kts | 302° |
| 2026-04-23 02:07 | 25.23020 | 55.40511 | 291 ft | 146 kts | 303° |
| 2026-04-23 02:08 | 25.23547 | 55.39560 | 90 ft | 144 kts | 302° |
| 2026-04-23 02:08 | 25.24045 | 55.38662 | 29 ft | 122 kts | 300° |
| 2026-04-23 02:08 | 25.24394 | 55.38038 | 30 ft | 69 kts | 302° |
| 2026-04-23 02:08 | 25.24559 | 55.37745 | 27 ft | 27 kts | 297° |
| 2026-04-23 02:09 | 25.24609 | 55.37521 | 27 ft | 28 kts | 273° |
| 2026-04-23 02:09 | 25.24616 | 55.37391 | 27 ft | 14 kts | 270° |
| 2026-04-23 02:09 | 25.24565 | 55.37306 | 29 ft | 14 kts | 208° |
| 2026-04-23 02:09 | 25.24482 | 55.37253 | 30 ft | 11 kts | 211° |
| 2026-04-23 02:10 | 25.24433 | 55.37220 | 29 ft | 2 kts | 211° |
| 2026-04-23 02:10 | 25.24428 | 55.37216 | 29 ft | 0 kts | 211° |